Cape Flattery, Washington
Current Conditions -  °F | °C
As of 2:53 AM on Friday 24 Oct 2014 (Local Time) from KUIL Reporting Station
Clear Clear  
Wind Chill:   Ceiling: Unl
Heat Index:   Visibility: 8mi
Dew Point:   Wind: 6mph
Humidity: 97%   Direction: 80°E
Pressure: 29.98"   Gusts: NA
Location:  48.3685°N, 124.623°W
Report Text: KUIL 240953Z AUTO 08005KT 8SM CLR 06/06 A2998 RMK AO2 SLP152 T00610056
Loading
Personal Weather Stations






























Interactive Weather Map
Tropical Storm Tracking
New forecast layout! Learn more

10-Day Weather Forecast

Advertisements
Track Severe Weather on mobile